createdAt,value
2023-04-15T00:01:11.631Z,7.22
2023-04-15T00:03:38.519Z,7.53
2023-04-15T00:06:05.508Z,10.90
2023-04-15T00:08:32.136Z,5.50
2023-04-15T00:11:02.781Z,9.35
2023-04-15T00:13:29.976Z,8.07
2023-04-15T00:15:56.619Z,6.13
2023-04-15T00:18:24.632Z,8.38
2023-04-15T00:20:54.391Z,11.88
2023-04-15T00:23:21.256Z,7.70
2023-04-15T00:25:47.837Z,6.82
2023-04-15T00:28:14.679Z,8.30
2023-04-15T00:30:41.554Z,9.88
2023-04-15T00:33:08.556Z,9.60
2023-04-15T00:35:37.439Z,6.55
2023-04-15T00:38:04.870Z,10.45
2023-04-15T00:40:31.602Z,7.40
2023-04-15T00:42:58.215Z,9.00
2023-04-15T00:45:25.508Z,8.77
2023-04-15T00:47:52.165Z,7.07
2023-04-15T00:50:19.119Z,10.52
2023-04-15T00:52:45.725Z,10.80
2023-04-15T00:55:12.674Z,7.25
2023-04-15T00:57:40.143Z,7.30
2023-04-15T01:00:11.752Z,8.48
2023-04-15T01:02:39.237Z,7.60
2023-04-15T01:05:06.297Z,11.43
2023-04-15T01:07:33.100Z,13.00
2023-04-15T01:10:00.095Z,7.70
2023-04-15T01:12:27.457Z,7.50
2023-04-15T01:14:55.177Z,8.52
2023-04-15T01:17:22.062Z,7.13
2023-04-15T01:19:48.919Z,8.05
2023-04-15T01:22:16.073Z,7.93
2023-04-15T01:24:52.199Z,8.27
2023-04-15T01:27:19.242Z,6.72
2023-04-15T01:29:46.508Z,8.15
2023-04-15T01:32:13.074Z,11.98
2023-04-15T01:34:39.673Z,8.20
2023-04-15T01:37:06.435Z,10.35
2023-04-15T01:39:33.578Z,8.15
2023-04-15T01:42:00.162Z,9.80
2023-04-15T01:44:27.594Z,10.45
2023-04-15T01:46:54.457Z,8.75
2023-04-15T01:49:21.144Z,8.52
2023-04-15T01:51:48.022Z,11.10
2023-04-15T01:54:14.628Z,10.18
2023-04-15T01:56:41.291Z,8.48
2023-04-15T01:59:08.567Z,8.80
2023-04-15T02:01:35.278Z,9.93
2023-04-15T02:04:02.051Z,7.38
2023-04-15T02:06:28.724Z,11.13
2023-04-15T02:08:55.469Z,9.73
2023-04-15T02:11:23.100Z,12.63
2023-04-15T02:13:49.939Z,9.00
2023-04-15T02:16:19.955Z,8.32
2023-04-15T02:18:47.093Z,7.45
2023-04-15T02:21:14.115Z,7.57
2023-04-15T02:23:40.986Z,9.88
2023-04-15T02:26:08.074Z,9.52
2023-04-15T02:28:34.824Z,10.23
2023-04-15T02:31:08.199Z,10.23
2023-04-15T02:33:35.058Z,10.43
2023-04-15T02:36:01.734Z,7.35
2023-04-15T02:38:28.354Z,11.60
2023-04-15T02:40:55.419Z,9.68
2023-04-15T02:43:22.059Z,7.57
2023-04-15T02:45:48.931Z,10.00
2023-04-15T02:48:17.967Z,10.02
2023-04-15T02:50:45.830Z,7.10
2023-04-15T02:53:13.360Z,6.55
2023-04-15T02:55:40.148Z,12.95
2023-04-15T02:58:07.052Z,12.27
2023-04-15T03:00:33.783Z,8.70
2023-04-15T03:03:05.661Z,9.77
2023-04-15T03:05:32.549Z,8.00
2023-04-15T03:08:00.582Z,10.75
2023-04-15T03:10:27.321Z,13.57
2023-04-15T03:12:54.048Z,9.25
2023-04-15T03:15:21.312Z,11.70
2023-04-15T03:17:49.546Z,12.15
2023-04-15T03:20:16.949Z,8.95
2023-04-15T03:22:43.982Z,9.27
2023-04-15T03:25:10.677Z,10.70
2023-04-15T03:27:38.568Z,7.85
2023-04-15T03:30:06.624Z,9.73
2023-04-15T03:32:33.538Z,8.35
2023-04-15T03:35:00.224Z,10.80
2023-04-15T03:37:27.458Z,10.95
2023-04-15T03:39:54.042Z,9.45
2023-04-15T03:42:20.827Z,8.73
2023-04-15T03:44:47.444Z,8.98
2023-04-15T03:47:14.056Z,11.73
2023-04-15T03:49:40.652Z,8.73
2023-04-15T03:52:07.328Z,9.35
2023-04-15T03:54:33.904Z,13.43
2023-04-15T03:57:01.290Z,7.07
2023-04-15T03:59:27.892Z,8.30
2023-04-15T04:01:54.795Z,12.13
2023-04-15T04:04:21.674Z,8.95
2023-04-15T04:06:48.456Z,13.43
2023-04-15T04:09:15.508Z,13.35
2023-04-15T04:11:42.297Z,11.30
2023-04-15T04:14:09.337Z,11.98
2023-04-15T04:16:36.370Z,10.38
2023-04-15T04:19:03.282Z,11.65
2023-04-15T04:21:30.763Z,8.35
2023-04-15T04:23:57.432Z,12.85
2023-04-15T04:26:24.014Z,7.25
2023-04-15T04:28:50.764Z,11.15
2023-04-15T04:31:17.602Z,9.23
2023-04-15T04:33:44.319Z,8.93
2023-04-15T04:36:11.007Z,11.45
2023-04-15T04:38:37.677Z,9.60
2023-04-15T04:41:04.382Z,12.82
2023-04-15T04:43:31.077Z,10.07
2023-04-15T04:45:57.716Z,10.65
2023-04-15T04:48:24.330Z,8.20
2023-04-15T04:50:51.549Z,10.82
2023-04-15T04:53:18.203Z,11.02
2023-04-15T04:55:44.811Z,12.93
2023-04-15T04:58:11.723Z,12.80
2023-04-15T05:00:38.475Z,10.02
2023-04-15T05:03:08.641Z,10.40
2023-04-15T05:05:36.974Z,10.95
2023-04-15T05:08:03.735Z,9.57
2023-04-15T05:10:30.482Z,10.52
2023-04-15T05:12:58.077Z,9.65
2023-04-15T05:15:25.436Z,10.30
2023-04-15T05:17:52.199Z,10.48
2023-04-15T05:20:19.151Z,11.80
2023-04-15T05:22:45.897Z,10.40
2023-04-15T05:25:12.967Z,13.43
2023-04-15T05:27:39.911Z,8.27
2023-04-15T05:30:07.258Z,10.00
2023-04-15T05:32:33.892Z,9.20
2023-04-15T05:35:00.746Z,10.30
2023-04-15T05:37:27.661Z,7.80
2023-04-15T05:39:54.247Z,10.60
2023-04-15T05:42:20.972Z,10.65
2023-04-15T05:44:47.723Z,9.02
2023-04-15T05:47:14.384Z,11.77
2023-04-15T05:49:40.936Z,12.70
2023-04-15T05:52:07.571Z,9.93
2023-04-15T05:54:34.216Z,10.32
2023-04-15T05:57:00.951Z,10.30
2023-04-15T05:59:28.374Z,11.70
2023-04-15T06:01:55.253Z,11.68
2023-04-15T06:04:22.907Z,16.15
2023-04-15T06:06:49.755Z,8.95
2023-04-15T06:09:16.850Z,9.45
2023-04-15T06:11:43.657Z,7.88
2023-04-15T06:14:10.420Z,9.10
2023-04-15T06:16:37.425Z,9.73
2023-04-15T06:19:04.438Z,11.43
2023-04-15T06:21:31.665Z,9.25
2023-04-15T06:24:01.471Z,8.25
2023-04-15T06:26:28.373Z,9.40
2023-04-15T06:28:55.678Z,8.73
2023-04-15T06:31:22.598Z,12.38
2023-04-15T06:33:49.590Z,8.07
2023-04-15T06:36:16.341Z,10.88
2023-04-15T06:38:42.978Z,10.10
2023-04-15T06:41:09.852Z,7.28
2023-04-15T06:43:36.504Z,10.57
2023-04-15T06:46:03.181Z,9.13
2023-04-15T06:48:29.835Z,9.40
2023-04-15T06:50:58.293Z,10.68
2023-04-15T06:53:28.002Z,8.00
2023-04-15T06:55:54.932Z,10.65
2023-04-15T06:58:21.854Z,9.10
2023-04-15T07:00:49.062Z,8.93
2023-04-15T07:03:15.987Z,11.20
2023-04-15T07:05:42.750Z,11.07
2023-04-15T07:08:09.600Z,11.45
2023-04-15T07:10:37.056Z,11.38
2023-04-15T07:13:04.569Z,10.27
2023-04-15T07:15:31.213Z,9.55
2023-04-15T07:17:58.246Z,15.90
2023-04-15T07:20:25.012Z,10.57
2023-04-15T07:22:51.696Z,11.52
2023-04-15T07:25:19.020Z,9.77
2023-04-15T07:27:45.902Z,14.07
2023-04-15T07:30:13.176Z,10.10
2023-04-15T07:32:40.521Z,11.13
2023-04-15T07:35:07.774Z,9.15
2023-04-15T07:37:34.654Z,8.68
2023-04-15T07:40:01.994Z,13.48
2023-04-15T07:42:29.333Z,8.88
2023-04-15T07:44:56.606Z,9.48
2023-04-15T07:47:23.271Z,9.93
2023-04-15T07:49:51.444Z,8.63
2023-04-15T07:52:18.585Z,9.43
2023-04-15T07:54:45.573Z,8.30
2023-04-15T07:57:12.304Z,10.90
2023-04-15T07:59:38.939Z,7.72
2023-04-15T08:02:05.575Z,10.18
2023-04-15T08:04:32.641Z,8.68
2023-04-15T08:06:59.862Z,7.80
2023-04-15T08:09:27.253Z,8.13
2023-04-15T08:11:53.967Z,6.85
2023-04-15T08:14:20.787Z,8.63
2023-04-15T08:16:47.660Z,10.32
2023-04-15T08:19:14.276Z,10.90
2023-04-15T08:21:41.058Z,11.77
2023-04-15T08:24:08.062Z,7.75
2023-04-15T08:26:34.719Z,8.23
2023-04-15T08:29:01.744Z,9.43
2023-04-15T08:31:30.045Z,6.45
2023-04-15T08:33:57.702Z,6.20
2023-04-15T08:36:24.335Z,6.28
2023-04-15T08:38:51.202Z,7.22
2023-04-15T08:41:23.508Z,9.55
2023-04-15T08:43:54.835Z,10.15
2023-04-15T08:46:22.737Z,7.85
2023-04-15T08:48:50.108Z,7.75
2023-04-15T08:51:18.349Z,4.72
2023-04-15T08:53:47.202Z,6.35
2023-04-15T08:56:16.727Z,4.85
2023-04-15T08:58:45.010Z,3.35
2023-04-15T09:01:13.366Z,4.90
2023-04-15T09:03:40.847Z,4.28
2023-04-15T09:06:08.304Z,6.78
2023-04-15T09:08:35.799Z,5.15
2023-04-15T09:11:03.647Z,3.28
2023-04-15T09:13:31.152Z,7.05
2023-04-15T09:15:58.448Z,4.72
2023-04-15T09:18:29.742Z,4.15
2023-04-15T09:20:57.572Z,5.28
2023-04-15T09:23:24.283Z,5.00
2023-04-15T09:25:51.042Z,4.18
2023-04-15T09:28:24.677Z,8.13
2023-04-15T09:30:55.892Z,5.57
2023-04-15T09:33:23.029Z,6.10
2023-04-15T09:36:05.247Z,4.75
2023-04-15T09:38:32.671Z,5.60
2023-04-15T09:40:59.558Z,7.13
2023-04-15T09:43:41.618Z,4.05
2023-04-15T09:46:08.408Z,3.78
2023-04-15T09:48:35.385Z,6.20
2023-04-15T09:51:02.452Z,5.25
2023-04-15T09:53:31.267Z,3.85
2023-04-15T09:56:03.234Z,4.78
2023-04-15T09:58:35.356Z,3.95
2023-04-15T10:01:05.164Z,4.68
2023-04-15T10:03:35.506Z,5.75
2023-04-15T10:06:03.725Z,5.70
2023-04-15T10:08:33.088Z,2.72
2023-04-15T10:11:02.036Z,4.03
2023-04-15T10:13:37.071Z,3.30
2023-04-15T10:16:15.335Z,5.93
2023-04-15T10:18:47.407Z,5.10
2023-04-15T10:21:18.409Z,3.70
2023-04-15T10:23:48.983Z,6.50
2023-04-15T10:26:17.608Z,4.85
2023-04-15T10:28:45.059Z,5.75
2023-04-15T10:31:16.184Z,4.72
2023-04-15T10:33:44.399Z,7.70
2023-04-15T10:36:13.107Z,4.85
2023-04-15T10:38:44.529Z,3.47
2023-04-15T10:41:20.158Z,2.95
2023-04-15T10:44:04.506Z,3.83
2023-04-15T10:46:45.791Z,2.50
2023-04-15T10:49:18.250Z,3.65
2023-04-15T10:51:53.496Z,3.30
2023-04-15T10:54:31.683Z,5.45
2023-04-15T10:57:02.030Z,5.35
2023-04-15T10:59:59.100Z,4.00
2023-04-15T11:02:47.438Z,6.95
2023-04-15T11:05:16.258Z,3.42
2023-04-15T11:07:58.990Z,3.03
2023-04-15T11:10:26.121Z,2.38
2023-04-15T11:12:54.629Z,4.32
2023-04-15T11:15:41.938Z,2.22
2023-04-15T11:18:08.574Z,1.80
2023-04-15T11:20:36.373Z,3.92
2023-04-15T11:23:11.919Z,3.20
2023-04-15T11:25:41.746Z,4.63
2023-04-15T11:28:08.730Z,2.65
2023-04-15T11:30:38.044Z,2.80
2023-04-15T11:33:08.347Z,2.03
2023-04-15T11:35:35.976Z,2.47
2023-04-15T11:38:08.622Z,2.53
2023-04-15T11:40:36.410Z,2.47
2023-04-15T11:43:06.852Z,2.22
2023-04-15T11:45:33.613Z,3.53
2023-04-15T11:48:12.219Z,2.97
2023-04-15T11:50:42.981Z,3.22
2023-04-15T11:53:12.632Z,2.47
2023-04-15T11:55:47.117Z,2.78
2023-04-15T11:58:19.675Z,3.20
2023-04-15T12:00:54.954Z,4.65
2023-04-15T12:03:23.781Z,2.90
2023-04-15T12:06:12.454Z,4.55
2023-04-15T12:09:03.652Z,3.08
2023-04-15T12:11:51.515Z,2.95
2023-04-15T12:14:25.383Z,2.17
2023-04-15T12:16:54.831Z,5.32
2023-04-15T12:19:29.982Z,8.07
2023-04-15T12:22:01.675Z,3.97
2023-04-15T12:24:31.052Z,3.35
2023-04-15T12:27:01.936Z,2.47
2023-04-15T12:29:29.829Z,4.03
2023-04-15T12:32:08.190Z,1.50
2023-04-15T12:34:34.873Z,3.45
2023-04-15T12:37:03.529Z,4.03
2023-04-15T12:39:32.582Z,3.67
2023-04-15T12:42:02.797Z,3.95
2023-04-15T12:44:29.533Z,7.97
2023-04-15T12:46:56.775Z,2.80
2023-04-15T12:49:24.519Z,2.83
2023-04-15T12:51:55.860Z,1.80
2023-04-15T12:54:23.432Z,2.67
2023-04-15T12:56:51.289Z,3.08
2023-04-15T12:59:18.800Z,2.17
2023-04-15T13:01:47.507Z,1.95
2023-04-15T13:04:15.049Z,1.60
2023-04-15T13:06:42.217Z,4.35
2023-04-15T13:09:09.089Z,5.10
2023-04-15T13:11:36.504Z,2.53
2023-04-15T13:14:05.851Z,4.82
2023-04-15T13:16:33.396Z,2.47
2023-04-15T13:19:01.643Z,6.20
2023-04-15T13:21:28.501Z,2.30
2023-04-15T13:23:55.714Z,3.10
2023-04-15T13:26:22.351Z,1.17
2023-04-15T13:28:49.022Z,1.90
2023-04-15T13:31:16.076Z,2.60
2023-04-15T13:33:42.817Z,0.52
2023-04-15T13:36:09.734Z,2.38
2023-04-15T13:38:36.566Z,3.00
2023-04-15T13:41:03.792Z,2.65
2023-04-15T13:43:30.680Z,1.70
2023-04-15T13:45:57.413Z,3.10
2023-04-15T13:48:24.091Z,6.47
2023-04-15T13:50:50.953Z,2.53
2023-04-15T13:53:18.823Z,6.70
2023-04-15T13:55:45.953Z,4.70
2023-04-15T13:58:13.296Z,6.30
2023-04-15T14:00:40.720Z,1.40
2023-04-15T14:03:07.579Z,3.78
2023-04-15T14:05:34.564Z,3.83
2023-04-15T14:08:01.264Z,2.13
2023-04-15T14:10:28.111Z,5.03
2023-04-15T14:12:54.773Z,3.13
2023-04-15T14:15:21.528Z,3.42
2023-04-15T14:17:48.339Z,2.50
2023-04-15T14:20:16.919Z,3.25
2023-04-15T14:22:44.147Z,2.38
2023-04-15T14:25:15.117Z,1.40
2023-04-15T14:27:50.059Z,4.15
2023-04-15T14:30:17.211Z,2.67
2023-04-15T14:32:43.815Z,1.70
2023-04-15T14:35:11.568Z,2.05
2023-04-15T14:37:38.446Z,4.10
2023-04-15T14:40:06.042Z,2.03
2023-04-15T14:42:32.748Z,4.45
2023-04-15T14:44:59.494Z,4.13
2023-04-15T14:47:26.443Z,3.47
2023-04-15T14:49:53.219Z,2.33
2023-04-15T14:52:19.937Z,9.38
2023-04-15T14:54:46.632Z,3.50
2023-04-15T14:57:13.173Z,4.15
2023-04-15T14:59:39.907Z,2.10
2023-04-15T15:02:06.695Z,5.28
2023-04-15T15:04:35.932Z,3.35
2023-04-15T15:07:02.762Z,5.88
2023-04-15T15:09:29.860Z,3.17
2023-04-15T15:11:57.217Z,5.70
2023-04-15T15:14:24.480Z,5.10
2023-04-15T15:16:51.222Z,2.85
2023-04-15T15:19:17.903Z,3.08
2023-04-15T15:21:44.615Z,6.05
2023-04-15T15:24:11.438Z,6.07
2023-04-15T15:26:38.195Z,3.15
2023-04-15T15:29:05.208Z,4.00
2023-04-15T15:31:31.904Z,4.15
2023-04-15T15:33:58.790Z,6.35
2023-04-15T15:36:29.889Z,6.50
2023-04-15T15:38:57.635Z,4.68
2023-04-15T15:41:25.880Z,3.58
2023-04-15T15:43:54.300Z,6.97
2023-04-15T15:46:21.151Z,2.47
2023-04-15T15:48:47.850Z,3.55
2023-04-15T15:51:14.492Z,5.85
2023-04-15T15:53:41.324Z,7.22
2023-04-15T15:56:08.095Z,5.20
2023-04-15T15:58:34.682Z,4.97
2023-04-15T16:01:02.132Z,5.03
2023-04-15T16:03:29.673Z,6.28
2023-04-15T16:06:00.563Z,7.43
2023-04-15T16:08:27.231Z,7.05
2023-04-15T16:10:54.419Z,11.50
2023-04-15T16:13:21.743Z,5.22
2023-04-15T16:15:50.064Z,4.78
2023-04-15T16:18:17.395Z,9.98
2023-04-15T16:20:44.865Z,4.00
2023-04-15T16:23:16.555Z,6.03
2023-04-15T16:25:47.526Z,6.80
2023-04-15T16:28:25.638Z,4.40
2023-04-15T16:30:53.581Z,3.63
2023-04-15T16:33:20.414Z,3.03
2023-04-15T16:35:47.136Z,3.92
2023-04-15T16:38:13.916Z,5.38
2023-04-15T16:40:40.575Z,3.22
2023-04-15T16:43:11.129Z,7.45
2023-04-15T16:45:37.964Z,5.80
2023-04-15T16:48:04.996Z,2.83
2023-04-15T16:50:31.812Z,4.85
2023-04-15T16:52:58.626Z,7.88
2023-04-15T16:55:25.319Z,7.13
2023-04-15T16:58:02.401Z,5.25
2023-04-15T17:00:31.182Z,4.75
2023-04-15T17:02:58.659Z,3.85
2023-04-15T17:05:27.614Z,7.60
2023-04-15T17:07:54.835Z,3.88
2023-04-15T17:10:21.495Z,5.15
2023-04-15T17:12:49.745Z,6.32
2023-04-15T17:15:16.702Z,5.47
2023-04-15T17:17:43.462Z,4.03
2023-04-15T17:20:10.848Z,3.53
2023-04-15T17:22:37.623Z,8.95
2023-04-15T17:25:05.040Z,7.57
2023-04-15T17:27:31.784Z,6.65
2023-04-15T17:29:58.596Z,5.72
2023-04-15T17:32:31.459Z,4.28
2023-04-15T17:34:58.227Z,4.70
2023-04-15T17:37:24.848Z,3.28
2023-04-15T17:39:54.354Z,7.25
2023-04-15T17:42:22.629Z,6.75
2023-04-15T17:44:49.613Z,6.80
2023-04-15T17:47:17.069Z,6.75
2023-04-15T17:49:45.064Z,4.93
2023-04-15T17:52:12.060Z,4.78
2023-04-15T17:54:38.712Z,7.82
2023-04-15T17:57:05.555Z,5.38
2023-04-15T17:59:33.833Z,4.60
2023-04-15T18:02:00.603Z,5.47
2023-04-15T18:04:27.408Z,10.90
2023-04-15T18:06:54.284Z,7.35
2023-04-15T18:09:22.170Z,6.80
2023-04-15T18:11:49.186Z,10.98
2023-04-15T18:14:26.963Z,10.13
2023-04-15T18:17:00.000Z,6.00
2023-04-15T18:19:26.954Z,3.55
2023-04-15T18:21:53.550Z,4.80
2023-04-15T18:24:21.493Z,6.13
2023-04-15T18:26:49.310Z,5.00
2023-04-15T18:29:16.596Z,6.88
2023-04-15T18:31:43.390Z,6.47
2023-04-15T18:34:10.313Z,9.43
2023-04-15T18:36:36.976Z,6.45
2023-04-15T18:39:04.877Z,5.10
2023-04-15T18:41:31.736Z,9.57
2023-04-15T18:43:58.381Z,5.25
2023-04-15T18:46:25.104Z,6.20
2023-04-15T18:48:54.696Z,5.53
2023-04-15T18:51:21.426Z,5.07
2023-04-15T18:53:48.141Z,7.03
2023-04-15T18:56:14.955Z,2.35
2023-04-15T18:59:08.326Z,6.97
2023-04-15T19:01:29.746Z,4.00
2023-04-15T19:03:56.459Z,6.15
2023-04-15T19:06:26.241Z,6.55
2023-04-15T19:08:54.989Z,5.13
2023-04-15T19:11:21.890Z,3.22
2023-04-15T19:13:48.546Z,3.13
2023-04-15T19:16:15.424Z,8.07
2023-04-15T19:18:42.942Z,5.70
2023-04-15T19:21:10.843Z,5.40
2023-04-15T19:23:38.307Z,5.63
2023-04-15T19:26:05.309Z,6.10
2023-04-15T19:28:32.013Z,5.72
2023-04-15T19:30:58.917Z,4.32
2023-04-15T19:33:30.992Z,2.72
2023-04-15T19:36:01.861Z,5.40
2023-04-15T19:38:28.508Z,7.25
2023-04-15T19:40:55.237Z,7.28
2023-04-15T19:43:21.931Z,5.05
2023-04-15T19:45:52.156Z,9.45
2023-04-15T19:48:19.232Z,7.88
2023-04-15T19:50:46.139Z,5.40
2023-04-15T19:53:12.743Z,2.65
2023-04-15T19:55:39.335Z,5.80
2023-04-15T19:58:06.073Z,5.38
2023-04-15T20:00:32.747Z,5.97
2023-04-15T20:02:59.491Z,3.08
2023-04-15T20:05:26.338Z,4.50
2023-04-15T20:07:53.759Z,10.80
2023-04-15T20:10:21.476Z,9.05
2023-04-15T20:12:52.360Z,4.80
2023-04-15T20:15:21.471Z,7.35
2023-04-15T20:17:48.187Z,6.90
2023-04-15T20:20:14.930Z,8.43
2023-04-15T20:22:41.507Z,7.68
2023-04-15T20:25:08.787Z,3.67
2023-04-15T20:27:35.520Z,4.30
2023-04-15T20:30:04.217Z,7.30
2023-04-15T20:32:35.194Z,5.03
2023-04-15T20:35:02.980Z,9.50
2023-04-15T20:37:30.937Z,12.68
2023-04-15T20:39:57.685Z,7.03
2023-04-15T20:42:24.548Z,5.57
2023-04-15T20:44:51.430Z,9.85
2023-04-15T20:47:18.524Z,6.07
2023-04-15T20:49:47.312Z,2.88
2023-04-15T20:52:13.926Z,9.88
2023-04-15T20:54:40.702Z,11.40
2023-04-15T20:57:07.428Z,8.40
2023-04-15T20:59:34.858Z,6.60
2023-04-15T21:02:01.891Z,5.78
2023-04-15T21:04:28.496Z,9.05
2023-04-15T21:06:55.209Z,11.15
2023-04-15T21:09:21.857Z,8.65
2023-04-15T21:14:19.124Z,11.10
2023-04-15T21:16:46.038Z,7.32
2023-04-15T21:19:12.764Z,6.03
2023-04-15T21:21:39.415Z,11.07
2023-04-15T21:24:07.714Z,9.82
2023-04-15T21:26:35.963Z,9.38
2023-04-15T21:29:02.992Z,5.47
2023-04-15T21:31:29.899Z,5.72
2023-04-15T21:33:56.695Z,12.45
2023-04-15T21:36:23.350Z,9.73
2023-04-15T21:38:50.020Z,8.20
2023-04-15T21:41:16.693Z,8.95
2023-04-15T21:43:43.246Z,8.95
2023-04-15T21:46:22.892Z,9.35
2023-04-15T21:48:53.138Z,6.57
2023-04-15T21:51:20.090Z,4.47
2023-04-15T21:53:46.804Z,10.38
2023-04-15T21:56:13.468Z,6.93
2023-04-15T21:58:40.155Z,8.35
2023-04-15T22:01:06.875Z,3.63
2023-04-15T22:03:35.000Z,3.50
2023-04-15T22:06:03.146Z,6.72
2023-04-15T22:08:36.131Z,3.80
2023-04-15T22:11:09.088Z,6.88
2023-04-15T22:13:36.051Z,5.43
2023-04-15T22:16:02.943Z,7.80
2023-04-15T22:18:29.576Z,5.28
2023-04-15T22:20:56.301Z,7.63
2023-04-15T22:23:22.980Z,9.77
2023-04-15T22:25:49.571Z,4.50
2023-04-15T22:28:16.290Z,5.70
2023-04-15T22:30:43.154Z,6.63
2023-04-15T22:33:10.330Z,5.90
2023-04-15T22:35:37.612Z,9.38
2023-04-15T22:38:05.038Z,8.93
2023-04-15T22:40:31.982Z,9.63
2023-04-15T22:42:58.657Z,3.58
2023-04-15T22:45:25.369Z,3.85
2023-04-15T22:47:52.055Z,8.60
2023-04-15T22:50:18.888Z,6.35
2023-04-15T22:52:46.645Z,8.15
2023-04-15T22:55:14.118Z,3.95
2023-04-15T22:57:40.786Z,6.07
2023-04-15T23:00:09.375Z,5.03
2023-04-15T23:02:36.047Z,8.25
2023-04-15T23:05:05.035Z,7.45
2023-04-15T23:07:39.359Z,8.48
2023-04-15T23:10:06.952Z,7.20
2023-04-15T23:12:33.586Z,8.68
2023-04-15T23:15:00.447Z,9.77
2023-04-15T23:17:27.199Z,9.50
2023-04-15T23:19:53.917Z,10.63
2023-04-15T23:22:20.537Z,8.63
2023-04-15T23:24:47.116Z,7.05
2023-04-15T23:27:13.660Z,7.20
2023-04-15T23:29:40.502Z,6.25
2023-04-15T23:32:07.098Z,9.18
2023-04-15T23:34:33.679Z,6.15
2023-04-15T23:37:00.355Z,10.95
2023-04-15T23:39:27.056Z,8.68
2023-04-15T23:41:53.771Z,8.07
2023-04-15T23:44:20.372Z,3.22
2023-04-15T23:46:47.081Z,13.30
2023-04-15T23:49:13.787Z,8.07
2023-04-15T23:51:40.907Z,9.88
2023-04-15T23:54:07.558Z,6.43
2023-04-15T23:56:34.225Z,7.65
2023-04-15T23:59:00.920Z,6.82
